createdAt,value
2022-10-17T00:01:09.686Z,100683.66
2022-10-17T00:06:15.899Z,100691.00
2022-10-17T00:11:21.874Z,100694.78
2022-10-17T00:16:25.805Z,100694.16
2022-10-17T00:21:28.438Z,100689.84
2022-10-17T00:26:32.685Z,100695.44
2022-10-17T00:31:35.780Z,100699.25
2022-10-17T00:36:38.614Z,100700.44
2022-10-17T00:41:42.638Z,100706.13
2022-10-17T00:46:45.287Z,100713.50
2022-10-17T00:51:51.851Z,100716.41
2022-10-17T00:56:56.474Z,100720.31
2022-10-17T01:02:04.371Z,100721.38
2022-10-17T01:07:07.016Z,100714.47
2022-10-17T01:12:20.593Z,100711.03
2022-10-17T01:17:34.040Z,100712.97
2022-10-17T01:22:42.991Z,100714.16
2022-10-17T01:28:15.063Z,100703.34
2022-10-17T01:33:29.486Z,100706.16
2022-10-17T01:38:37.569Z,100705.50
2022-10-17T01:43:45.105Z,100701.22
2022-10-17T01:48:49.239Z,100698.72
2022-10-17T01:53:57.981Z,100701.53
2022-10-17T01:59:06.002Z,100699.88
2022-10-17T02:04:11.839Z,100690.19
2022-10-17T02:09:20.216Z,100686.69
2022-10-17T02:14:34.094Z,100684.13
2022-10-17T02:19:49.002Z,100686.94
2022-10-17T02:25:01.492Z,100685.28
2022-10-17T02:30:10.219Z,100687.25
2022-10-17T02:35:16.615Z,100685.53
2022-10-17T02:40:22.831Z,100688.44
2022-10-17T02:45:29.694Z,100686.69
2022-10-17T02:50:44.282Z,100680.44
2022-10-17T02:55:54.613Z,100684.22
2022-10-17T03:00:57.774Z,100681.84
2022-10-17T03:06:01.866Z,100690.06
2022-10-17T03:11:04.647Z,100689.28
2022-10-17T03:16:08.815Z,100688.66
2022-10-17T03:21:13.602Z,100684.19
2022-10-17T03:26:16.598Z,100688.81
2022-10-17T03:31:19.283Z,100703.41
2022-10-17T03:36:24.374Z,100694.41
2022-10-17T03:41:27.253Z,100691.81
2022-10-17T03:46:30.392Z,100690.28
2022-10-17T03:51:37.134Z,100703.78
2022-10-17T03:56:44.997Z,100707.56
2022-10-17T04:01:51.305Z,100710.47
2022-10-17T04:06:56.310Z,100714.06
2022-10-17T04:11:59.065Z,100720.50
2022-10-17T04:17:01.841Z,100717.06
2022-10-17T04:22:08.438Z,100724.28
2022-10-17T04:27:13.675Z,100719.97
2022-10-17T04:32:20.404Z,100716.50
2022-10-17T04:37:33.329Z,100721.13
2022-10-17T04:42:41.627Z,100731.91
2022-10-17T04:47:46.307Z,100729.31
2022-10-17T04:52:50.378Z,100725.88
2022-10-17T04:57:53.097Z,100726.00
2022-10-17T05:02:56.985Z,100726.94
2022-10-17T05:08:01.042Z,100728.88
2022-10-17T05:13:08.555Z,100736.97
2022-10-17T05:18:11.705Z,100737.09
2022-10-17T05:23:18.443Z,100739.84
2022-10-17T05:28:21.269Z,100742.66
2022-10-17T05:33:24.384Z,100754.44
2022-10-17T05:38:29.159Z,100746.44
2022-10-17T05:43:33.218Z,100750.88
2022-10-17T05:48:36.357Z,100755.50
2022-10-17T05:53:41.720Z,100754.63
2022-10-17T05:58:53.372Z,100752.91
2022-10-17T06:04:13.548Z,100750.19
2022-10-17T06:09:18.173Z,100759.16
2022-10-17T06:14:23.936Z,100766.38
2022-10-17T06:19:31.315Z,100775.34
2022-10-17T06:24:35.436Z,100771.78
2022-10-17T06:29:40.396Z,100778.03
2022-10-17T06:34:43.099Z,100787.00
2022-10-17T06:39:47.899Z,100791.44
2022-10-17T06:44:54.705Z,100797.69
2022-10-17T06:49:57.431Z,100805.78
2022-10-17T06:55:27.704Z,100815.59
2022-10-17T07:00:56.385Z,100817.44
2022-10-17T07:06:01.481Z,100812.56
2022-10-17T07:11:11.430Z,100833.34
2022-10-17T07:16:15.517Z,100838.66
2022-10-17T07:21:19.715Z,100837.50
2022-10-17T07:26:23.888Z,100841.53
2022-10-17T07:31:26.661Z,100844.03
2022-10-17T07:36:29.988Z,100836.38
2022-10-17T07:41:35.497Z,100844.75
2022-10-17T07:46:39.914Z,100854.84
2022-10-17T07:51:43.266Z,100861.28
2022-10-17T07:56:50.653Z,100855.13
2022-10-17T08:01:56.483Z,100857.13
2022-10-17T08:07:11.656Z,100859.91
2022-10-17T08:12:24.322Z,100858.97
2022-10-17T08:17:26.957Z,100860.13
2022-10-17T08:22:29.976Z,100862.81
2022-10-17T08:27:34.955Z,100865.31
2022-10-17T08:32:37.578Z,100868.09
2022-10-17T08:37:40.156Z,100872.53
2022-10-17T08:43:01.236Z,100873.28
2022-10-17T08:48:09.407Z,100876.94
2022-10-17T08:53:20.008Z,100866.97
2022-10-17T08:58:26.185Z,100862.94
2022-10-17T09:03:57.578Z,100866.03
2022-10-17T09:09:16.769Z,100856.69
2022-10-17T09:14:41.264Z,100854.50
2022-10-17T09:19:50.104Z,100847.97
2022-10-17T09:24:57.045Z,100857.69
2022-10-17T09:30:40.134Z,100855.66
2022-10-17T09:35:42.943Z,100848.28
2022-10-17T09:40:47.176Z,100855.28
2022-10-17T09:46:02.479Z,100843.47
2022-10-17T09:51:15.090Z,100861.19
2022-10-17T09:56:28.297Z,100865.59
2022-10-17T10:01:34.920Z,100865.41
2022-10-17T10:06:38.008Z,100867.91
2022-10-17T10:11:48.867Z,100876.66
2022-10-17T10:16:54.562Z,100871.03
2022-10-17T10:21:58.952Z,100875.84
2022-10-17T10:27:04.064Z,100879.88
2022-10-17T10:32:19.755Z,100864.38
2022-10-17T10:37:24.454Z,100871.22
2022-10-17T10:42:30.607Z,100858.31
2022-10-17T10:47:34.985Z,100842.78
2022-10-17T10:52:44.756Z,100841.72
2022-10-17T10:57:50.704Z,100834.19
2022-10-17T11:03:03.976Z,100831.97
2022-10-17T11:08:16.256Z,100829.94
2022-10-17T11:13:24.405Z,100829.72
2022-10-17T11:18:34.405Z,100831.25
2022-10-17T11:23:42.462Z,100831.81
2022-10-17T11:28:45.135Z,100825.44
2022-10-17T11:33:53.188Z,100820.63
2022-10-17T11:39:01.216Z,100811.25
2022-10-17T11:44:08.668Z,100824.56
2022-10-17T11:49:20.381Z,100823.38
2022-10-17T11:54:27.725Z,100819.53
2022-10-17T11:59:55.033Z,100809.28
2022-10-17T12:05:05.657Z,100806.66
2022-10-17T12:10:21.031Z,100805.50
2022-10-17T12:15:32.472Z,100792.50
2022-10-17T12:20:38.108Z,100792.50
2022-10-17T12:25:50.694Z,100791.88
2022-10-17T12:30:57.342Z,100775.44
2022-10-17T12:36:43.039Z,100779.66
2022-10-17T12:41:56.203Z,100774.38
2022-10-17T12:46:59.996Z,100774.13
2022-10-17T12:52:16.061Z,100769.59
2022-10-17T12:57:24.983Z,100773.81
2022-10-17T13:02:31.459Z,100764.97
2022-10-17T13:07:35.568Z,100766.28
2022-10-17T13:12:41.309Z,100764.97
2022-10-17T13:17:44.201Z,100768.00
2022-10-17T13:22:47.021Z,100763.44
2022-10-17T13:27:53.667Z,100767.66
2022-10-17T13:32:56.969Z,100764.06
2022-10-17T13:38:03.399Z,100759.06
2022-10-17T13:43:16.367Z,100751.50
2022-10-17T13:48:22.714Z,100751.28
2022-10-17T13:53:32.750Z,100745.78
2022-10-17T13:58:43.488Z,100755.09
2022-10-17T14:03:48.991Z,100751.41
2022-10-17T14:09:00.517Z,100754.97
2022-10-17T14:14:07.174Z,100762.22
2022-10-17T14:19:24.168Z,100767.88
2022-10-17T14:24:31.532Z,100765.28
2022-10-17T14:29:54.270Z,100770.03
2022-10-17T14:35:17.779Z,100774.34
2022-10-17T14:40:24.789Z,100774.34
2022-10-17T14:45:31.479Z,100784.31
2022-10-17T14:50:36.206Z,100775.88
2022-10-17T14:55:41.332Z,100773.56
2022-10-17T15:00:45.447Z,100784.06
2022-10-17T15:05:48.486Z,100788.28
2022-10-17T15:10:52.679Z,100784.41
2022-10-17T15:15:56.713Z,100783.16
2022-10-17T15:21:04.969Z,100786.53
2022-10-17T15:26:17.461Z,100785.34
2022-10-17T15:31:24.282Z,100794.41
2022-10-17T15:36:28.913Z,100791.81
2022-10-17T15:41:33.159Z,100799.19
2022-10-17T15:46:37.363Z,100795.84
2022-10-17T15:51:40.474Z,100799.63
2022-10-17T15:56:44.398Z,100793.56
2022-10-17T16:01:49.159Z,100782.34
2022-10-17T16:06:51.769Z,100803.44
2022-10-17T16:11:54.480Z,100810.81
2022-10-17T16:16:59.072Z,100808.44
2022-10-17T16:22:04.695Z,100801.38
2022-10-17T16:27:07.470Z,100803.13
2022-10-17T16:32:11.708Z,100801.38
2022-10-17T16:37:14.360Z,100806.78
2022-10-17T16:42:17.005Z,100814.81
2022-10-17T16:47:21.064Z,100821.84
2022-10-17T16:52:23.993Z,100828.75
2022-10-17T16:57:26.769Z,100829.38
2022-10-17T17:02:31.059Z,100830.16
2022-10-17T17:07:34.194Z,100832.63
2022-10-17T17:12:37.703Z,100835.13
2022-10-17T17:17:52.393Z,100840.22
2022-10-17T17:22:57.557Z,100836.41
2022-10-17T17:28:00.292Z,100840.75
2022-10-17T17:33:04.547Z,100841.28
2022-10-17T17:38:07.514Z,100847.44
2022-10-17T17:43:10.269Z,100844.59
2022-10-17T17:48:14.863Z,100851.75
2022-10-17T17:53:18.927Z,100863.22
2022-10-17T17:58:21.526Z,100869.31
2022-10-17T18:03:26.328Z,100861.09
2022-10-17T18:08:29.146Z,100869.94
2022-10-17T18:13:32.280Z,100869.84
2022-10-17T18:18:37.243Z,100862.59
2022-10-17T18:23:40.317Z,100866.78
2022-10-17T18:28:44.470Z,100877.53
2022-10-17T18:33:48.596Z,100883.34
2022-10-17T18:38:51.349Z,100887.91
2022-10-17T18:43:56.033Z,100879.66
2022-10-17T18:49:00.152Z,100886.78
2022-10-17T18:54:03.598Z,100894.72
2022-10-17T18:59:06.211Z,100903.69
2022-10-17T19:04:10.944Z,100911.81
2022-10-17T19:09:15.292Z,100916.13
2022-10-17T19:14:18.022Z,100915.91
2022-10-17T19:19:24.005Z,100916.66
2022-10-17T19:24:28.652Z,100925.53
2022-10-17T19:29:32.961Z,100920.13
2022-10-17T19:34:37.558Z,100922.84
2022-10-17T19:39:40.363Z,100909.06
2022-10-17T19:44:43.045Z,100927.81
2022-10-17T19:49:49.979Z,100934.28
2022-10-17T19:54:53.035Z,100937.53
2022-10-17T19:59:56.138Z,100950.09
2022-10-17T20:05:17.640Z,100950.72
2022-10-17T20:10:21.500Z,100962.31
2022-10-17T20:15:24.154Z,100958.75
2022-10-17T20:20:29.163Z,100975.63
2022-10-17T20:25:33.306Z,100973.78
2022-10-17T20:30:36.430Z,100971.81
2022-10-17T20:35:43.282Z,100969.25
2022-10-17T20:40:46.410Z,100971.81
2022-10-17T20:45:51.409Z,100977.16
2022-10-17T20:50:56.294Z,100971.75
2022-10-17T20:56:03.755Z,100982.66
2022-10-17T21:01:08.115Z,100986.03
2022-10-17T21:06:12.425Z,100979.88
2022-10-17T21:11:17.315Z,100982.22
2022-10-17T21:16:20.680Z,100977.78
2022-10-17T21:21:27.464Z,100983.06
2022-10-17T21:26:32.644Z,100984.81
2022-10-17T21:31:36.828Z,100996.53
2022-10-17T21:36:41.528Z,100991.50
2022-10-17T21:41:45.243Z,100990.09
2022-10-17T21:46:48.683Z,100991.09
2022-10-17T21:51:53.914Z,100991.31
2022-10-17T21:56:56.548Z,100989.69
2022-10-17T22:01:59.308Z,100999.22
2022-10-17T22:07:03.346Z,101006.81
2022-10-17T22:12:06.201Z,101009.75
2022-10-17T22:17:08.825Z,101012.88
2022-10-17T22:22:12.866Z,101011.38
2022-10-17T22:27:15.682Z,101015.38
2022-10-17T22:32:21.548Z,101009.34
2022-10-17T22:37:26.591Z,100999.69
2022-10-17T22:42:31.275Z,101007.09
2022-10-17T22:47:33.989Z,101014.66
2022-10-17T22:52:38.013Z,101022.13
2022-10-17T22:57:41.365Z,101017.03
2022-10-17T23:02:44.432Z,101024.53
2022-10-17T23:07:48.407Z,101019.31
2022-10-17T23:12:51.036Z,101014.34
2022-10-17T23:17:53.765Z,101026.25
2022-10-17T23:22:58.337Z,101028.25
2022-10-17T23:28:01.715Z,101032.13
2022-10-17T23:33:05.388Z,101027.03
2022-10-17T23:38:09.749Z,101028.13
2022-10-17T23:43:12.408Z,101022.91
2022-10-17T23:48:15.059Z,101016.88
2022-10-17T23:53:19.075Z,101024.31
2022-10-17T23:58:21.744Z,101016.44
